Time;durP1;ratioP1;P1;durP2;ratioP2;P2;SDS_P1;SDS_P2;PMS_P1;PMS_P2;Temp;Humidity;BMP_temperature;BMP_pressure;BME280_temperature;BME280_humidity;BME280_pressure;Samples;Min_cycle;Max_cycle;Signal;HPM_P1;HPM_P2
2023/10/31 00:00:57;;;;;;;0.43;0.43;;;7.00;1.00;;;;;;6156041;23;20087;-79
2023/10/31 00:03:24;;;;;;;0.43;0.43;;;7.00;1.00;;;;;;6155770;23;20017;-80
2023/10/31 00:05:51;;;;;;;0.50;0.47;;;6.90;1.00;;;;;;6182695;23;20035;-79
2023/10/31 00:08:18;;;;;;;0.50;0.43;;;6.90;1.00;;;;;;6182620;23;20485;-78
2023/10/31 00:10:46;;;;;;;0.30;0.30;;;6.90;1.00;;;;;;6171287;23;20077;-79
2023/10/31 00:13:13;;;;;;;0.50;0.47;;;6.80;1.00;;;;;;6157288;23;20355;-80
2023/10/31 00:15:39;;;;;;;0.63;0.40;;;6.80;1.00;;;;;;6182465;23;20028;-78
2023/10/31 00:18:06;;;;;;;0.45;0.40;;;6.80;1.00;;;;;;6182854;23;20263;-79
2023/10/31 00:20:34;;;;;;;0.40;0.40;;;6.80;1.00;;;;;;6158100;23;20234;-79
2023/10/31 00:23:01;;;;;;;0.40;0.40;;;6.80;1.00;;;;;;6182993;23;20051;-80
2023/10/31 00:25:28;;;;;;;1.75;0.50;;;6.70;99.90;;;;;;6206043;23;20391;-80
2023/10/31 00:27:55;;;;;;;0.50;0.40;;;6.70;1.00;;;;;;6156323;23;20374;-80
2023/10/31 00:30:22;;;;;;;0.50;0.50;;;6.70;99.90;;;;;;6182097;23;20017;-80
2023/10/31 00:32:48;;;;;;;0.28;0.28;;;6.70;1.00;;;;;;6157388;23;20021;-80
2023/10/31 00:35:16;;;;;;;0.47;0.47;;;6.70;1.00;;;;;;6207011;23;20449;-80
2023/10/31 00:37:43;;;;;;;0.40;0.40;;;6.70;1.00;;;;;;6158571;23;20047;-79
2023/10/31 00:40:14;;;;;;;0.47;0.47;;;6.70;1.00;;;;;;6181740;23;20378;-80
2023/10/31 00:42:41;;;;;;;0.35;0.30;;;6.70;1.00;;;;;;6157555;23;20092;-80
2023/10/31 00:45:09;;;;;;;0.50;0.40;;;6.60;99.90;;;;;;6181869;23;20465;-80
2023/10/31 00:47:36;;;;;;;0.57;0.47;;;6.60;1.00;;;;;;6158045;23;20024;-80
2023/10/31 00:50:03;;;;;;;0.70;0.60;;;6.60;1.00;;;;;;6157578;23;20021;-79
2023/10/31 00:52:30;;;;;;;0.90;0.50;;;6.60;1.00;;;;;;6182676;23;20075;-80
2023/10/31 00:54:57;;;;;;;0.63;0.50;;;6.50;99.90;;;;;;6206494;23;20083;-79
2023/10/31 00:57:24;;;;;;;0.75;0.50;;;6.50;1.00;;;;;;6181609;23;20441;-80
2023/10/31 00:59:50;;;;;;;0.73;0.40;;;6.50;99.90;;;;;;6182483;23;20024;-80
2023/10/31 01:02:17;;;;;;;0.68;0.50;;;6.50;1.00;;;;;;6155562;23;20021;-79
2023/10/31 01:04:44;;;;;;;0.30;0.30;;;6.50;1.00;;;;;;6152990;23;20021;-79
2023/10/31 01:07:12;;;;;;;0.50;0.50;;;6.50;99.90;;;;;;6154496;23;20454;-78
2023/10/31 01:09:39;;;;;;;0.50;0.40;;;6.50;1.00;;;;;;6207709;23;20486;-80
2023/10/31 01:12:06;;;;;;;0.65;0.50;;;6.50;1.00;;;;;;6205773;23;20028;-80
2023/10/31 01:14:33;;;;;;;0.70;0.50;;;6.50;1.00;;;;;;6180977;23;20020;-80
2023/10/31 01:17:00;;;;;;;0.52;0.40;;;6.40;1.00;;;;;;6208706;23;20021;-77
2023/10/31 01:19:27;;;;;;;0.63;0.50;;;6.40;1.00;;;;;;6208109;23;20066;-77
2023/10/31 01:21:54;;;;;;;0.40;0.40;;;6.40;1.00;;;;;;6206904;23;20207;-77
2023/10/31 01:24:21;;;;;;;0.30;0.30;;;6.40;99.90;;;;;;6160285;23;20228;-79
2023/10/31 01:26:47;;;;;;;0.50;0.40;;;6.40;1.00;;;;;;6181436;23;20470;-77
2023/10/31 01:29:14;;;;;;;0.63;0.55;;;6.40;1.00;;;;;;6157027;23;20028;-77
2023/10/31 01:31:41;;;;;;;0.60;0.40;;;6.40;1.00;;;;;;6206957;23;20024;-80
2023/10/31 01:34:25;;;;;;;0.65;0.50;;;6.40;1.00;;;;;;6207397;23;20040;-80
2023/10/31 01:36:52;;;;;;;0.40;0.40;;;6.40;1.00;;;;;;6157641;23;20477;-80
2023/10/31 01:39:18;;;;;;;0.25;0.25;;;6.30;1.00;;;;;;6208851;23;20024;-80
2023/10/31 01:41:46;;;;;;;0.40;0.30;;;6.30;1.00;;;;;;6183308;23;20514;-80
2023/10/31 01:44:13;;;;;;;0.43;0.40;;;6.30;1.00;;;;;;6183347;23;20521;-79
2023/10/31 01:46:40;;;;;;;0.35;0.30;;;6.30;1.00;;;;;;6209135;23;20020;-78
2023/10/31 01:49:06;;;;;;;0.60;0.60;;;6.30;1.00;;;;;;6159700;23;20355;-78
2023/10/31 01:51:33;;;;;;;0.40;0.40;;;6.30;1.00;;;;;;6184231;23;20020;-80
2023/10/31 01:54:00;;;;;;;0.35;0.32;;;6.30;1.00;;;;;;6208877;23;20497;-77
2023/10/31 01:56:27;;;;;;;0.38;0.38;;;6.20;1.00;;;;;;6183175;23;20024;-78
2023/10/31 01:58:53;;;;;;;0.73;0.40;;;6.20;1.00;;;;;;6159117;23;20048;-78
2023/10/31 02:01:21;;;;;;;0.30;0.30;;;6.20;1.00;;;;;;6158896;23;20466;-80
2023/10/31 02:03:48;;;;;;;0.30;0.30;;;6.10;99.90;;;;;;6159070;23;20024;-77
2023/10/31 02:06:15;;;;;;;0.50;0.45;;;6.10;1.00;;;;;;6183661;23;20400;-78
2023/10/31 02:08:42;;;;;;;0.30;0.30;;;6.10;99.90;;;;;;6209155;23;20020;-78
2023/10/31 02:11:10;;;;;;;0.30;0.30;;;6.10;1.00;;;;;;6182291;23;20078;-80
2023/10/31 02:13:39;;;;;;;0.40;0.30;;;6.10;1.00;;;;;;6159601;23;20067;-80
2023/10/31 02:16:06;;;;;;;0.38;0.38;;;6.10;1.00;;;;;;6159216;23;20055;-79
2023/10/31 02:18:33;;;;;;;0.40;0.38;;;6.00;1.00;;;;;;6208436;23;20175;-80
2023/10/31 02:21:00;;;;;;;0.40;0.40;;;6.00;1.00;;;;;;6159220;23;20327;-80
2023/10/31 02:23:27;;;;;;;0.30;0.30;;;6.10;1.00;;;;;;6208567;23;20282;-80
2023/10/31 02:25:54;;;;;;;0.40;0.40;;;6.00;1.00;;;;;;6157897;23;20401;-80
2023/10/31 02:28:21;;;;;;;0.38;0.38;;;6.00;1.00;;;;;;6181867;23;20017;-80
2023/10/31 02:33:25;;;;;;;0.20;0.20;;;6.00;1.00;;;;;;6197743;22;20029;-90
2023/10/31 02:35:53;;;;;;;0.30;0.30;;;6.10;1.00;;;;;;6139439;23;20017;-92
2023/10/31 02:38:23;;;;;;;0.30;0.30;;;6.10;1.00;;;;;;6139675;23;20025;-90
2023/10/31 02:40:50;;;;;;;0.40;0.30;;;6.10;1.00;;;;;;6142194;23;20079;-87
2023/10/31 02:43:17;;;;;;;0.30;0.30;;;6.10;1.00;;;;;;6166293;23;20016;-91
2023/10/31 02:48:48;;;;;;;;;;;;;;;;;;;;;
2023/10/31 02:51:20;;;;;;;0.40;0.40;;;6.10;1.00;;;;;;6241475;22;20019;-92
2023/10/31 02:53:47;;;;;;;0.38;0.30;;;6.10;1.00;;;;;;6204350;22;20105;-91
2023/10/31 02:56:20;;;;;;;0.40;0.40;;;6.10;1.00;;;;;;6203940;22;20024;-90
2023/10/31 02:58:47;;;;;;;0.35;0.30;;;6.10;1.00;;;;;;6204996;22;20027;-91
2023/10/31 03:01:28;;;;;;;0.30;0.30;;;6.10;1.00;;;;;;6208356;22;20086;-92
2023/10/31 03:03:58;;;;;;;0.40;0.40;;;6.10;1.00;;;;;;6206338;22;20478;-90
2023/10/31 03:06:27;;;;;;;0.50;0.40;;;6.10;1.00;;;;;;6203436;22;20019;-90
2023/10/31 03:09:04;;;;;;;0.22;0.22;;;6.10;1.00;;;;;;6204267;22;20028;-90
2023/10/31 03:11:32;;;;;;;0.30;0.30;;;6.20;1.00;;;;;;6204240;22;20027;-92
2023/10/31 03:14:01;;;;;;;0.20;0.20;;;6.10;1.00;;;;;;6204137;22;20019;-92
2023/10/31 03:16:31;;;;;;;0.25;0.25;;;6.20;1.00;;;;;;6205257;22;20039;-91
2023/10/31 03:19:03;;;;;;;0.25;0.25;;;6.20;1.00;;;;;;6205872;22;20384;-91
2023/10/31 03:21:34;;;;;;;0.30;0.30;;;6.20;1.00;;;;;;6206047;22;20089;-90
2023/10/31 03:24:04;;;;;;;0.25;0.20;;;6.20;1.00;;;;;;6203611;22;20012;-90
2023/10/31 03:26:32;;;;;;;0.63;0.38;;;6.30;1.00;;;;;;6204662;22;20578;-90
2023/10/31 03:29:09;;;;;;;0.20;0.20;;;6.30;1.00;;;;;;6206849;22;20030;-90
2023/10/31 03:31:44;;;;;;;0.28;0.28;;;6.30;1.00;;;;;;6229824;22;20015;-90
2023/10/31 03:34:12;;;;;;;0.20;0.20;;;6.30;1.00;;;;;;6181827;23;20024;-91
2023/10/31 03:36:44;;;;;;;0.20;0.20;;;6.30;1.00;;;;;;6198053;23;20080;-90
2023/10/31 03:39:12;;;;;;;0.32;0.30;;;6.40;1.00;;;;;;6173121;23;20058;-89
2023/10/31 03:41:42;;;;;;;0.30;0.30;;;6.50;1.00;;;;;;6221325;23;20016;-87
2023/10/31 03:44:09;;;;;;;0.15;0.15;;;6.50;1.00;;;;;;6173219;23;20035;-90
2023/10/31 03:46:47;;;;;;;0.30;0.30;;;6.50;1.00;;;;;;6173837;23;20019;-90
2023/10/31 03:49:18;;;;;;;0.20;0.20;;;6.60;1.00;;;;;;6176225;23;20020;-91
2023/10/31 03:51:47;;;;;;;0.20;0.20;;;6.70;1.00;;;;;;6173674;23;20058;-91
2023/10/31 03:54:17;;;;;;;0.30;0.20;;;6.70;1.00;;;;;;6173750;23;20559;-91
2023/10/31 03:56:52;;;;;;;0.20;0.20;;;6.80;1.00;;;;;;6171888;23;20076;-91
2023/10/31 03:59:24;;;;;;;0.20;0.20;;;6.80;1.00;;;;;;6173100;23;20122;-91
2023/10/31 04:02:00;;;;;;;0.20;0.20;;;6.90;1.00;;;;;;6173799;23;20046;-90
2023/10/31 04:04:30;;;;;;;0.30;0.30;;;6.90;1.00;;;;;;6173248;23;20050;-91
2023/10/31 04:07:13;;;;;;;0.20;0.20;;;7.00;1.00;;;;;;6172958;23;20020;-92
2023/10/31 04:09:43;;;;;;;0.20;0.20;;;7.00;1.00;;;;;;6172826;23;20016;-90
2023/10/31 04:12:40;;;;;;;0.20;0.20;;;7.10;1.00;;;;;;6172602;23;20031;-92
2023/10/31 04:16:18;;;;;;;0.32;0.25;;;7.10;1.00;;;;;;6203135;23;20019;-91
2023/10/31 04:19:40;;;;;;;0.20;0.20;;;7.20;1.00;;;;;;6188617;23;20347;-92
2023/10/31 04:22:32;;;;;;;0.25;0.25;;;7.20;1.00;;;;;;6196859;23;20020;-90
2023/10/31 04:25:16;;;;;;;0.32;0.30;;;7.30;1.00;;;;;;6175628;23;20487;-90
2023/10/31 04:28:01;;;;;;;0.30;0.30;;;7.30;1.00;;;;;;6176035;23;20034;-90
2023/10/31 04:31:09;;;;;;;0.20;0.20;;;7.30;1.00;;;;;;6072771;23;20022;-91
2023/10/31 04:34:00;;;;;;;0.20;0.20;;;7.30;1.00;;;;;;6073772;23;20040;-89
2023/10/31 04:36:28;;;;;;;0.28;0.28;;;7.40;1.00;;;;;;6078564;23;20166;-90
2023/10/31 04:38:57;;;;;;;0.20;0.20;;;7.50;4.00;;;;;;6146102;23;20016;-90
2023/10/31 04:41:26;;;;;;;0.20;0.20;;;7.50;1.00;;;;;;6173569;23;20024;-91
2023/10/31 04:43:53;;;;;;;0.17;0.17;;;7.50;1.00;;;;;;6173535;23;20138;-89
2023/10/31 04:46:22;;;;;;;0.20;0.20;;;7.50;1.00;;;;;;6173198;23;20441;-89
2023/10/31 04:48:49;;;;;;;0.10;0.10;;;7.60;1.00;;;;;;6173591;23;20475;-91
2023/10/31 04:51:18;;;;;;;0.20;0.17;;;7.60;1.00;;;;;;6173761;23;20489;-90
2023/10/31 04:53:47;;;;;;;0.20;0.20;;;7.60;1.00;;;;;;6172461;23;20042;-90
2023/10/31 04:56:17;;;;;;;0.20;0.20;;;7.70;1.00;;;;;;6172334;23;20031;-92
2023/10/31 04:58:44;;;;;;;0.20;0.20;;;7.70;1.00;;;;;;6173084;23;20072;-89
2023/10/31 05:01:17;;;;;;;;;;;7.70;1.00;;;;;;6178411;23;20126;-91
2023/10/31 05:03:45;;;;;;;0.20;0.20;;;7.70;1.00;;;;;;6198420;23;19941;-89
2023/10/31 05:06:21;;;;;;;0.30;0.30;;;7.80;1.00;;;;;;6174883;23;20024;-89
2023/10/31 05:08:57;;;;;;;0.20;0.20;;;7.80;1.00;;;;;;6172960;23;20326;-90
2023/10/31 05:11:54;;;;;;;0.15;0.15;;;7.80;1.00;;;;;;6179163;23;20020;-91
2023/10/31 05:14:22;;;;;;;0.10;0.10;;;7.90;1.00;;;;;;6173155;23;20030;-89
2023/10/31 05:16:51;;;;;;;0.15;0.15;;;7.90;1.00;;;;;;6173226;23;20103;-90
2023/10/31 05:19:18;;;;;;;0.20;0.20;;;7.90;1.00;;;;;;6173560;23;20020;-89
2023/10/31 05:21:48;;;;;;;0.52;0.30;;;8.00;1.00;;;;;;6172104;23;20016;-91
2023/10/31 05:24:19;;;;;;;0.20;0.20;;;8.00;1.00;;;;;;6174353;23;20018;-90
2023/10/31 05:27:03;;;;;;;0.20;0.20;;;8.00;1.00;;;;;;6171951;23;20437;-91
2023/10/31 05:29:34;;;;;;;0.20;0.20;;;8.00;1.00;;;;;;6197387;23;20028;-90
2023/10/31 05:32:05;;;;;;;0.25;0.25;;;8.00;1.00;;;;;;6171924;23;20024;-90
2023/10/31 05:34:42;;;;;;;0.17;0.17;;;8.10;1.00;;;;;;6172412;23;20247;-90
2023/10/31 05:37:12;;;;;;;0.17;0.17;;;8.10;1.00;;;;;;6197869;23;20017;-89
2023/10/31 05:39:41;;;;;;;0.15;0.15;;;8.10;1.00;;;;;;6173512;23;20087;-87
2023/10/31 05:42:09;;;;;;;0.20;0.20;;;8.10;1.00;;;;;;6172155;23;20046;-89
2023/10/31 05:44:47;;;;;;;0.40;0.35;;;8.10;1.00;;;;;;6172800;23;20458;-89
2023/10/31 05:47:16;;;;;;;0.20;0.20;;;8.10;1.00;;;;;;6172295;23;20027;-89
2023/10/31 05:49:45;;;;;;;0.20;0.20;;;8.20;1.00;;;;;;6141613;23;20016;-89
2023/10/31 05:52:15;;;;;;;0.20;0.20;;;8.20;1.00;;;;;;6141798;23;20442;-89
2023/10/31 05:54:44;;;;;;;0.20;0.20;;;8.20;1.00;;;;;;6141818;23;20031;-90
2023/10/31 05:57:12;;;;;;;0.20;0.20;;;8.20;1.00;;;;;;6141065;23;20020;-89
2023/10/31 06:05:04;;;;;;;0.40;0.30;;;8.30;1.00;;;;;;6222897;22;20089;-79
2023/10/31 06:07:31;;;;;;;0.32;0.30;;;8.20;1.00;;;;;;6160254;23;20066;-90
2023/10/31 06:10:01;;;;;;;0.20;0.20;;;8.20;1.00;;;;;;6165369;23;20384;-84
2023/10/31 06:12:29;;;;;;;0.30;0.30;;;8.20;1.00;;;;;;6168983;23;20024;-82
2023/10/31 06:14:57;;;;;;;0.28;0.22;;;8.20;1.00;;;;;;6188184;23;20024;-82
2023/10/31 06:17:26;;;;;;;0.30;0.30;;;8.20;1.00;;;;;;6238400;23;20276;-80
2023/10/31 06:19:53;;;;;;;0.55;0.40;;;8.20;1.00;;;;;;6213642;23;20028;-80
2023/10/31 06:22:20;;;;;;;0.20;0.20;;;8.20;1.00;;;;;;6188150;23;20024;-89
2023/10/31 06:24:47;;;;;;;0.32;0.20;;;8.20;1.00;;;;;;6157993;23;20031;-78
2023/10/31 06:27:14;;;;;;;0.20;0.20;;;8.20;1.00;;;;;;6182932;23;20044;-78
2023/10/31 06:29:41;;;;;;;0.30;0.30;;;8.20;1.00;;;;;;6208635;23;20020;-84
2023/10/31 06:32:27;;;;;;;0.20;0.20;;;8.20;1.00;;;;;;6176879;23;20020;-81
2023/10/31 06:34:54;;;;;;;0.40;0.40;;;8.20;1.00;;;;;;6190098;23;20052;-80
2023/10/31 06:37:21;;;;;;;0.43;0.30;;;8.20;1.00;;;;;;6189164;23;20032;-88
2023/10/31 06:39:49;;;;;;;0.20;0.20;;;8.20;1.00;;;;;;6191634;23;20023;-79
2023/10/31 06:42:16;;;;;;;0.30;0.28;;;8.20;1.00;;;;;;6216710;23;20474;-77
2023/10/31 06:44:45;;;;;;;0.47;0.40;;;8.30;1.00;;;;;;6165469;23;20028;-79
2023/10/31 06:47:11;;;;;;;0.30;0.30;;;8.20;1.00;;;;;;6211328;23;20020;-79
2023/10/31 06:49:39;;;;;;;0.20;0.20;;;8.20;1.00;;;;;;6212295;23;20073;-80
2023/10/31 06:52:06;;;;;;;0.20;0.20;;;8.30;1.00;;;;;;6214082;23;20020;-82
2023/10/31 06:54:34;;;;;;;0.20;0.20;;;8.30;1.00;;;;;;6187289;23;20035;-87
2023/10/31 06:57:01;;;;;;;0.32;0.32;;;8.30;1.00;;;;;;6185992;23;20016;-79
2023/10/31 06:59:29;;;;;;;0.20;0.20;;;8.30;1.00;;;;;;6160673;23;20513;-79
2023/10/31 07:02:00;;;;;;;0.20;0.20;;;8.30;1.00;;;;;;6186766;23;20017;-88
2023/10/31 07:04:27;;;;;;;0.20;0.20;;;8.30;1.00;;;;;;6206861;22;20066;-80
2023/10/31 07:06:57;;;;;;;0.20;0.20;;;8.40;1.00;;;;;;6237195;22;20067;-80
2023/10/31 07:09:25;;;;;;;0.30;0.30;;;8.40;1.00;;;;;;6211265;22;20030;-80
2023/10/31 07:11:53;;;;;;;0.20;0.20;;;8.50;7.80;;;;;;6211743;22;20512;-79
2023/10/31 07:14:21;;;;;;;0.30;0.30;;;8.60;23.20;;;;;;6210405;22;20023;-80
2023/10/31 07:16:48;;;;;;;0.40;0.38;;;8.60;9.20;;;;;;6236547;22;20016;-78
2023/10/31 07:19:15;;;;;;;0.30;0.30;;;8.60;6.90;;;;;;6209413;22;20016;-80
2023/10/31 07:21:42;;;;;;;0.38;0.30;;;8.70;12.50;;;;;;6210261;22;20027;-88
2023/10/31 07:24:09;;;;;;;0.20;0.20;;;8.70;1.00;;;;;;6211864;22;20020;-80
2023/10/31 07:26:37;;;;;;;0.20;0.20;;;8.80;42.70;;;;;;6210434;22;20020;-78
2023/10/31 07:29:04;;;;;;;0.30;0.20;;;8.80;88.40;;;;;;6235841;22;20019;-86
2023/10/31 07:31:31;;;;;;;0.35;0.20;;;8.90;78.20;;;;;;6211999;22;20022;-81
2023/10/31 07:33:58;;;;;;;0.25;0.25;;;9.00;88.80;;;;;;6212618;22;20020;-80
2023/10/31 07:36:25;;;;;;;0.35;0.28;;;9.00;92.40;;;;;;6212879;22;20019;-83
2023/10/31 07:38:52;;;;;;;0.52;0.40;;;9.10;99.90;;;;;;6212518;22;20023;-79
2023/10/31 07:41:19;;;;;;;0.50;0.40;;;9.20;92.90;;;;;;6210450;22;20082;-79
2023/10/31 07:43:46;;;;;;;0.30;0.25;;;9.20;99.90;;;;;;6213146;22;20073;-79
2023/10/31 07:46:13;;;;;;;0.50;0.40;;;9.30;99.90;;;;;;6213379;22;20041;-88
2023/10/31 07:48:40;;;;;;;0.25;0.25;;;9.40;99.90;;;;;;6216412;22;20023;-92
2023/10/31 07:51:07;;;;;;;0.30;0.30;;;9.50;99.90;;;;;;6210224;22;20020;-79
2023/10/31 07:53:34;;;;;;;0.35;0.30;;;9.60;99.90;;;;;;6234633;22;20124;-79
2023/10/31 07:56:02;;;;;;;0.30;0.30;;;9.70;99.90;;;;;;6209220;22;20023;-79
2023/10/31 07:58:29;;;;;;;0.30;0.30;;;9.70;99.90;;;;;;6210404;22;20023;-80
2023/10/31 08:00:56;;;;;;;0.20;0.20;;;9.80;99.90;;;;;;6235209;22;20378;-79
2023/10/31 08:03:23;;;;;;;0.20;0.20;;;9.90;95.30;;;;;;6233598;22;20024;-83
2023/10/31 08:05:51;;;;;;;0.17;0.17;;;10.00;80.10;;;;;;6157436;23;20020;-85
2023/10/31 08:08:18;;;;;;;0.20;0.20;;;10.10;49.80;;;;;;6156515;23;20043;-82
2023/10/31 08:10:45;;;;;;;0.47;0.30;;;10.10;26.60;;;;;;6158506;23;20023;-80
2023/10/31 08:13:12;;;;;;;0.20;0.20;;;10.20;1.00;;;;;;6180497;23;20418;-80
2023/10/31 08:15:40;;;;;;;0.45;0.25;;;10.30;1.00;;;;;;6154086;23;20059;-80
2023/10/31 08:18:07;;;;;;;0.63;0.20;;;10.30;1.00;;;;;;6156432;23;20351;-80
2023/10/31 08:20:35;;;;;;;0.52;0.20;;;10.40;1.00;;;;;;6155072;23;20420;-93
2023/10/31 08:23:02;;;;;;;0.20;0.20;;;10.50;1.00;;;;;;6164503;23;20026;-89
2023/10/31 08:25:29;;;;;;;0.20;0.20;;;10.50;1.00;;;;;;6169054;23;20051;-91
2023/10/31 08:27:56;;;;;;;0.20;0.20;;;10.50;99.90;;;;;;6173112;23;20338;-88
2023/10/31 08:30:23;;;;;;;0.30;0.20;;;10.50;99.90;;;;;;6164777;23;20323;-88
2023/10/31 08:32:50;;;;;;;0.10;0.10;;;10.60;99.90;;;;;;6164601;23;20023;-83
2023/10/31 08:35:17;;;;;;;0.17;0.17;;;10.60;99.90;;;;;;6158833;23;20354;-79
2023/10/31 08:37:45;;;;;;;0.17;0.17;;;10.60;99.90;;;;;;6154714;23;20016;-79
2023/10/31 08:40:12;;;;;;;0.22;0.22;;;10.60;99.90;;;;;;6154960;23;20020;-79
2023/10/31 08:42:39;;;;;;;0.10;0.10;;;10.60;99.90;;;;;;6154028;23;20020;-79
2023/10/31 08:45:07;;;;;;;0.20;0.20;;;10.60;99.90;;;;;;6152732;23;20104;-79
2023/10/31 08:47:34;;;;;;;0.20;0.20;;;10.60;99.90;;;;;;6147887;23;20051;-89
2023/10/31 08:50:02;;;;;;;0.13;0.13;;;10.60;99.90;;;;;;6149902;23;20482;-79
2023/10/31 08:52:29;;;;;;;0.20;0.20;;;10.60;99.90;;;;;;6157930;23;20048;-79
2023/10/31 08:54:56;;;;;;;0.20;0.20;;;10.70;99.90;;;;;;6179459;23;20731;-79
2023/10/31 08:57:23;;;;;;;0.20;0.20;;;10.70;99.90;;;;;;6153062;23;20099;-79
2023/10/31 08:59:50;;;;;;;0.30;0.20;;;10.80;99.90;;;;;;6177298;23;20016;-79
2023/10/31 09:02:17;;;;;;;1.20;0.20;;;10.80;99.90;;;;;;6205561;23;20023;-78
2023/10/31 09:04:44;;;;;;;0.10;0.10;;;10.90;99.90;;;;;;6189146;22;20073;-79
2023/10/31 09:07:11;;;;;;;0.20;0.20;;;11.00;1.00;;;;;;6234068;22;20020;-79
2023/10/31 09:09:39;;;;;;;0.20;0.20;;;11.00;99.90;;;;;;6210877;22;20026;-81
2023/10/31 09:12:07;;;;;;;0.10;0.10;;;11.10;99.90;;;;;;6209640;22;20457;-78
2023/10/31 09:14:35;;;;;;;0.10;0.10;;;11.20;1.00;;;;;;6210709;22;20020;-80
2023/10/31 09:17:02;;;;;;;0.20;0.20;;;11.30;99.90;;;;;;6238094;22;20103;-80
2023/10/31 09:19:29;;;;;;;0.20;0.20;;;11.30;99.90;;;;;;6213082;22;20077;-78
2023/10/31 09:21:56;;;;;;;0.20;0.20;;;11.40;99.90;;;;;;6213733;22;20122;-79
2023/10/31 09:24:23;;;;;;;0.55;0.25;;;11.50;99.90;;;;;;6210224;22;20034;-79
2023/10/31 09:26:50;;;;;;;0.20;0.20;;;11.50;99.90;;;;;;6235813;22;20027;-80
2023/10/31 09:29:17;;;;;;;0.20;0.20;;;11.60;99.90;;;;;;6233573;22;20097;-79
2023/10/31 09:31:55;;;;;;;0.20;0.20;;;11.70;99.90;;;;;;6213463;22;20024;-79
2023/10/31 09:34:22;;;;;;;0.30;0.28;;;11.80;99.90;;;;;;6209657;22;20019;-80
2023/10/31 09:36:49;;;;;;;1.35;0.30;;;11.80;1.00;;;;;;6234269;22;20015;-80
2023/10/31 09:39:16;;;;;;;0.40;0.32;;;11.90;1.00;;;;;;6210031;22;20016;-81
2023/10/31 09:41:43;;;;;;;0.20;0.20;;;11.90;99.90;;;;;;6233900;22;20111;-80
2023/10/31 09:44:10;;;;;;;0.43;0.32;;;12.00;99.90;;;;;;6233089;22;20027;-79
2023/10/31 09:46:37;;;;;;;0.68;0.40;;;12.00;94.60;;;;;;6210025;22;20386;-81
2023/10/31 09:49:05;;;;;;;0.30;0.30;;;12.10;99.90;;;;;;6210501;22;20015;-79
2023/10/31 09:51:32;;;;;;;0.30;0.30;;;12.10;99.90;;;;;;6209435;22;20015;-79
2023/10/31 09:53:59;;;;;;;0.20;0.20;;;12.20;1.00;;;;;;6211908;22;20247;-80
2023/10/31 09:56:26;;;;;;;0.40;0.22;;;12.20;99.90;;;;;;6207691;22;20069;-80
2023/10/31 09:58:53;;;;;;;0.20;0.20;;;12.30;1.00;;;;;;6211208;22;20421;-79
2023/10/31 10:01:20;;;;;;;0.45;0.40;;;12.30;1.00;;;;;;6208794;22;20075;-79
2023/10/31 10:03:47;;;;;;;0.80;0.30;;;12.30;1.00;;;;;;6211342;22;20027;-78
2023/10/31 10:06:15;;;;;;;2.05;0.60;;;12.30;99.90;;;;;;6210172;22;20019;-79
2023/10/31 10:08:42;;;;;;;0.90;0.47;;;12.40;99.90;;;;;;6210418;22;20029;-79
2023/10/31 10:11:09;;;;;;;0.50;0.50;;;12.40;1.00;;;;;;6236153;22;20042;-79
2023/10/31 10:13:36;;;;;;;0.38;0.38;;;12.40;99.90;;;;;;6235665;22;20415;-80
2023/10/31 10:16:04;;;;;;;0.30;0.30;;;12.40;50.30;;;;;;6211029;22;20024;-79
2023/10/31 10:18:32;;;;;;;0.47;0.38;;;12.50;99.90;;;;;;6209578;22;20016;-78
2023/10/31 10:21:03;;;;;;;0.40;0.40;;;12.50;99.90;;;;;;6233258;22;20511;-78
2023/10/31 10:23:30;;;;;;;0.45;0.45;;;12.60;98.30;;;;;;6210797;22;20077;-80
2023/10/31 10:26:01;;;;;;;0.28;0.28;;;12.60;7.80;;;;;;6210501;22;20059;-80
2023/10/31 10:28:33;;;;;;;0.40;0.40;;;12.70;1.00;;;;;;6208926;22;20099;-79
2023/10/31 10:31:00;;;;;;;1.05;0.60;;;12.70;99.90;;;;;;6211988;22;20366;-79
2023/10/31 10:33:28;;;;;;;0.40;0.40;;;12.70;99.90;;;;;;6209665;22;20015;-79
2023/10/31 10:35:55;;;;;;;0.50;0.40;;;12.80;99.90;;;;;;6235913;22;20020;-79
2023/10/31 10:38:23;;;;;;;0.98;0.38;;;12.80;1.00;;;;;;6210473;22;20016;-79
2023/10/31 10:40:50;;;;;;;0.30;0.30;;;12.90;1.00;;;;;;6211450;22;20619;-79
2023/10/31 10:43:20;;;;;;;1.02;0.50;;;12.90;1.00;;;;;;6209085;22;20015;-78
2023/10/31 10:45:50;;;;;;;0.55;0.50;;;12.90;1.00;;;;;;6233963;22;20016;-80
2023/10/31 10:48:18;;;;;;;1.17;0.40;;;13.00;1.00;;;;;;6213342;22;20022;-79
2023/10/31 10:50:45;;;;;;;0.40;0.25;;;13.10;90.10;;;;;;6236519;22;20469;-85
2023/10/31 10:53:25;;;;;;;1.17;0.30;;;13.10;99.90;;;;;;6212267;22;20042;-79
2023/10/31 10:55:55;;;;;;;0.32;0.28;;;13.20;92.50;;;;;;6211878;22;20081;-78
2023/10/31 10:58:34;;;;;;;0.40;0.40;;;13.20;1.00;;;;;;6211070;22;20038;-80
2023/10/31 11:01:02;;;;;;;0.28;0.28;;;13.30;1.00;;;;;;6210460;22;20346;-80
2023/10/31 11:03:29;;;;;;;0.88;0.40;;;13.30;1.00;;;;;;6204866;22;20015;-80
2023/10/31 11:05:57;;;;;;;0.93;0.70;;;13.30;99.90;;;;;;6152800;23;20400;-79
2023/10/31 11:08:24;;;;;;;0.68;0.60;;;13.40;99.90;;;;;;6154853;23;20123;-80
2023/10/31 11:10:53;;;;;;;0.40;0.40;;;13.50;99.90;;;;;;6154692;23;20058;-80
2023/10/31 11:13:21;;;;;;;0.98;0.60;;;13.60;99.90;;;;;;6179522;23;20020;-80
2023/10/31 11:15:50;;;;;;;0.75;0.63;;;13.70;99.90;;;;;;6155552;23;20028;-80
2023/10/31 11:18:17;;;;;;;1.67;0.73;;;13.80;99.90;;;;;;6155835;23;20028;-78
2023/10/31 11:20:45;;;;;;;0.98;0.60;;;13.80;99.90;;;;;;6155512;23;20024;-78
2023/10/31 11:23:12;;;;;;;0.82;0.50;;;13.90;99.90;;;;;;6155566;23;20616;-79
2023/10/31 11:25:43;;;;;;;1.35;1.00;;;14.00;99.90;;;;;;6153114;23;20058;-79
2023/10/31 11:28:11;;;;;;;0.95;0.60;;;14.20;99.90;;;;;;6156579;23;20023;-80
2023/10/31 11:30:38;;;;;;;0.88;0.70;;;14.40;99.90;;;;;;6177786;23;20099;-80
2023/10/31 11:33:08;;;;;;;1.50;0.60;;;14.50;99.90;;;;;;6154975;23;20462;-79
2023/10/31 11:35:36;;;;;;;0.45;0.43;;;14.80;99.90;;;;;;6152387;23;20024;-86
2023/10/31 11:38:04;;;;;;;0.85;0.47;;;15.00;99.90;;;;;;6178556;23;20078;-79
2023/10/31 11:40:31;;;;;;;0.30;0.30;;;15.10;99.90;;;;;;6233620;23;20024;-79
2023/10/31 11:43:03;;;;;;;0.57;0.57;;;15.10;99.90;;;;;;6206765;23;20042;-79
2023/10/31 11:45:44;;;;;;;0.60;0.50;;;15.00;99.90;;;;;;6180570;23;20020;-79
2023/10/31 11:48:12;;;;;;;0.73;0.50;;;14.90;97.80;;;;;;6207835;23;20032;-80
2023/10/31 11:50:39;;;;;;;0.70;0.40;;;14.80;99.90;;;;;;6181909;23;20035;-86
2023/10/31 11:53:11;;;;;;;0.73;0.40;;;14.80;99.90;;;;;;6182351;23;20082;-81
2023/10/31 11:55:43;;;;;;;0.70;0.40;;;14.70;99.90;;;;;;6183071;23;20024;-80
2023/10/31 11:58:22;;;;;;;1.60;0.50;;;14.70;98.60;;;;;;6179829;23;20027;-85
2023/10/31 12:00:51;;;;;;;0.82;0.47;;;14.70;99.90;;;;;;6181385;23;20078;-82
2023/10/31 12:03:19;;;;;;;0.40;0.30;;;14.90;99.90;;;;;;6178591;22;20031;-80
2023/10/31 12:05:54;;;;;;;0.60;0.50;;;15.10;93.20;;;;;;6203319;23;20086;-84
2023/10/31 12:08:28;;;;;;;1.10;0.38;;;15.50;99.90;;;;;;6153902;23;20024;-81
2023/10/31 12:11:11;;;;;;;1.33;0.30;;;16.10;79.30;;;;;;6206404;23;20046;-81
2023/10/31 12:13:42;;;;;;;0.20;0.20;;;16.20;49.10;;;;;;6179020;23;20031;-81
2023/10/31 12:16:10;;;;;;;0.40;0.30;;;16.10;29.90;;;;;;6178756;23;20031;-84
2023/10/31 12:18:40;;;;;;;0.73;0.30;;;16.10;28.60;;;;;;6157043;23;20337;-80
2023/10/31 12:21:08;;;;;;;0.45;0.40;;;16.10;51.70;;;;;;6182725;23;20027;-84
2023/10/31 12:23:36;;;;;;;1.30;0.60;;;16.20;31.80;;;;;;6179579;23;20413;-81
2023/10/31 12:26:04;;;;;;;0.63;0.40;;;16.60;37.60;;;;;;6153372;23;20024;-86
2023/10/31 12:28:31;;;;;;;0.57;0.28;;;16.70;21.70;;;;;;6205524;23;20613;-82
2023/10/31 12:30:58;;;;;;;0.30;0.30;;;16.80;7.40;;;;;;6206103;23;20074;-82
2023/10/31 12:33:26;;;;;;;0.73;0.30;;;17.20;10.10;;;;;;6157054;23;20111;-81
2023/10/31 12:35:56;;;;;;;0.98;0.50;;;17.60;1.00;;;;;;6180735;23;20507;-88
2023/10/31 12:38:24;;;;;;;0.38;0.30;;;17.80;1.00;;;;;;6181804;23;20032;-83
2023/10/31 12:40:51;;;;;;;0.73;0.40;;;17.90;1.00;;;;;;6207016;23;20078;-88
2023/10/31 12:43:18;;;;;;;0.57;0.35;;;17.60;1.00;;;;;;6156846;23;20082;-87
2023/10/31 12:45:44;;;;;;;0.57;0.40;;;17.50;1.00;;;;;;6181736;23;20032;-83
2023/10/31 12:48:12;;;;;;;0.70;0.50;;;17.70;1.00;;;;;;6182960;23;20024;-83
2023/10/31 12:50:42;;;;;;;0.45;0.35;;;17.80;1.00;;;;;;6181851;23;20020;-80
2023/10/31 12:53:09;;;;;;;0.85;0.50;;;17.50;1.00;;;;;;6183111;23;20028;-81
2023/10/31 12:55:40;;;;;;;1.45;0.50;;;17.00;1.00;;;;;;6180407;23;20020;-82
2023/10/31 12:58:09;;;;;;;0.65;0.40;;;17.20;1.00;;;;;;6178479;23;20271;-86
2023/10/31 13:00:37;;;;;;;0.70;0.30;;;17.50;1.00;;;;;;6179722;23;20446;-82
2023/10/31 13:03:08;;;;;;;1.45;0.50;;;17.30;1.00;;;;;;6177725;23;20020;-83
2023/10/31 13:05:41;;;;;;;0.82;0.30;;;17.00;1.00;;;;;;6234868;22;20100;-80
2023/10/31 13:08:17;;;;;;;0.45;0.40;;;16.90;1.00;;;;;;6263447;22;20122;-91
2023/10/31 13:10:44;;;;;;;1.60;0.40;;;16.90;1.00;;;;;;6263338;22;20053;-88
2023/10/31 13:13:12;;;;;;;1.05;0.43;;;17.10;1.00;;;;;;6236780;22;20023;-85
2023/10/31 13:15:41;;;;;;;0.50;0.30;;;17.50;1.00;;;;;;6259570;22;20027;-81
2023/10/31 13:18:11;;;;;;;0.38;0.20;;;17.80;1.00;;;;;;6263567;22;20030;-87
2023/10/31 13:20:38;;;;;;;0.40;0.30;;;17.50;1.00;;;;;;6238226;22;20027;-81
2023/10/31 13:23:05;;;;;;;0.20;0.20;;;17.20;1.00;;;;;;6236168;22;20031;-80